Time;durP1;ratioP1;P1;durP2;ratioP2;P2;SDS_P1;SDS_P2;PMS_P1;PMS_P2;Temp;Humidity;BMP_temperature;BMP_pressure;BME280_temperature;BME280_humidity;BME280_pressure;Samples;Min_cycle;Max_cycle;Signal;HPM_P1;HPM_P2
2021/12/26 00:02:39;;;;;;;;;59.33;52.00;;;;;2.64;91.00;100736.44;6232108;23;8822;-73
2021/12/26 00:05:34;;;;;;;;;60.00;52.00;;;;;2.61;90.89;100744.38;6215077;23;8803;-73
2021/12/26 00:08:30;;;;;;;;;60.00;49.33;;;;;2.58;91.36;100751.19;6214694;23;8799;-73
2021/12/26 00:11:27;;;;;;;;;45.33;44.00;;;;;2.59;91.14;100760.22;6214953;23;8890;-73
2021/12/26 00:14:22;;;;;;;;;42.33;42.33;;;;;2.46;91.38;100776.06;6214798;23;8885;-73
2021/12/26 00:17:18;;;;;;;;;38.33;36.00;;;;;2.41;91.79;100773.34;6214625;23;11573;-73
2021/12/26 00:20:14;;;;;;;;;61.33;48.33;;;;;2.49;91.82;100786.44;6214677;23;11559;-73
2021/12/26 00:23:10;;;;;;;;;64.00;55.00;;;;;2.61;91.58;100775.25;6212608;23;8795;-72
2021/12/26 00:26:06;;;;;;;;;59.33;52.00;;;;;2.61;91.20;100782.63;6214177;23;8787;-73
2021/12/26 00:29:01;;;;;;;;;61.33;52.00;;;;;2.26;91.40;100803.38;6214379;23;8818;-73
2021/12/26 00:31:57;;;;;;;;;35.67;29.33;;;;;2.39;91.71;100808.28;6214262;23;8796;-73
2021/12/26 00:34:53;;;;;;;;;64.00;52.00;;;;;2.37;91.49;100805.00;6214157;23;8795;-73
2021/12/26 00:37:50;;;;;;;;;69.00;56.00;;;;;2.31;92.70;100806.09;6214250;23;8799;-74
2021/12/26 00:40:46;;;;;;;;;69.00;56.00;;;;;2.37;92.45;100820.56;6213728;23;8804;-74
2021/12/26 00:43:42;;;;;;;;;73.00;59.67;;;;;2.41;92.59;100817.00;6193578;23;8803;-74
2021/12/26 00:46:38;;;;;;;;;72.00;59.33;;;;;2.45;92.06;100822.72;6214254;23;8798;-73
2021/12/26 00:49:34;;;;;;;;;40.00;32.67;;;;;2.53;91.94;100813.19;6194598;23;8784;-74
2021/12/26 00:52:30;;;;;;;;;69.00;57.33;;;;;2.52;91.99;100798.72;6213503;23;8772;-74
2021/12/26 00:55:26;;;;;;;;;78.00;61.67;;;;;2.54;91.00;100809.38;6213578;23;8795;-74
2021/12/26 00:58:22;;;;;;;;;74.33;61.00;;;;;2.44;91.17;100802.81;6213314;23;9597;-74
2021/12/26 01:01:18;;;;;;;;;73.00;60.00;;;;;2.30;91.55;100806.34;6213129;23;8894;-73
2021/12/26 01:04:13;;;;;;;;;76.00;61.67;;;;;2.26;92.08;100797.09;6213044;23;8821;-74
2021/12/26 01:07:22;;;;;;;;;81.33;63.00;;;;;2.37;91.66;100802.25;6213201;23;8925;-73
2021/12/26 01:10:20;;;;;;;;;76.33;62.67;;;;;2.45;91.47;100781.78;6213236;23;8966;-74
2021/12/26 01:16:15;;;;;;;;;67.67;56.00;;;;;2.52;91.26;100815.09;6213085;23;8799;-74
2021/12/26 01:19:16;;;;;;;;;73.67;61.00;;;;;2.50;91.19;100822.75;6211877;23;8869;-74
2021/12/26 01:22:12;;;;;;;;;60.33;48.33;;;;;2.48;90.83;100824.94;6213100;23;8794;-73
2021/12/26 01:25:07;;;;;;;;;59.33;51.67;;;;;2.49;90.96;100821.09;6213306;23;8799;-74
2021/12/26 01:28:05;;;;;;;;;45.00;43.33;;;;;2.49;90.69;100834.75;6214147;23;8859;-74
2021/12/26 01:31:00;;;;;;;;;36.00;26.00;;;;;2.44;90.84;100829.28;6213240;23;9596;-74
2021/12/26 01:34:00;;;;;;;;;47.67;44.67;;;;;2.46;91.34;100825.22;6212186;23;8811;-74
2021/12/26 01:36:55;;;;;;;;;56.33;47.33;;;;;2.55;91.07;100828.22;6213134;23;8830;-74
2021/12/26 01:39:51;;;;;;;;;50.33;46.00;;;;;2.61;90.53;100812.66;6192690;23;8839;-74
2021/12/26 01:42:47;;;;;;;;;47.00;45.33;;;;;2.55;91.17;100808.28;6212597;23;8799;-74
2021/12/26 01:45:43;;;;;;;;;41.33;39.67;;;;;2.54;90.98;100812.09;6212836;23;8819;-74
2021/12/26 01:48:39;;;;;;;;;46.33;45.00;;;;;2.53;90.63;100807.72;6212608;23;8881;-73
2021/12/26 01:51:35;;;;;;;;;34.67;34.67;;;;;2.56;90.86;100794.34;6213915;23;8826;-73
2021/12/26 01:55:01;;;;;;;;;36.00;34.33;;;;;2.58;90.90;100816.72;6214794;23;11528;-74
2021/12/26 01:57:49;;;;;;;;;38.67;37.67;;;;;2.54;90.70;100826.56;6214704;23;11605;-74
2021/12/26 02:01:07;;;;;;;;;35.67;33.33;;;;;2.55;90.68;100832.84;6214821;23;8783;-74
2021/12/26 02:04:03;;;;;;;;;25.50;24.00;;;;;2.37;91.39;100832.28;6214781;23;11574;-74
2021/12/26 02:07:01;;;;;;;;;37.25;32.75;;;;;2.44;90.57;100802.00;6215994;23;11485;-74
2021/12/26 02:09:56;;;;;;;;;31.33;31.00;;;;;2.48;91.00;100784.81;6194643;23;11579;-74
2021/12/26 02:12:52;;;;;;;;;26.67;26.67;;;;;2.49;90.59;100808.28;6214567;23;12327;-74
2021/12/26 02:15:51;;;;;;;;;19.50;19.50;;;;;2.54;91.15;100793.00;6214511;23;11609;-74
2021/12/26 02:18:47;;;;;;;;;22.75;22.75;;;;;2.61;90.69;100777.97;6214290;23;11499;-74
2021/12/26 02:22:09;;;;;;;;;24.67;23.67;;;;;2.50;90.90;100782.59;6214544;23;11551;-74
2021/12/26 02:25:28;;;;;;;;;15.33;15.33;;;;;2.41;90.90;100797.09;6214627;23;11549;-75
2021/12/26 02:28:28;;;;;;;;;24.00;23.67;;;;;2.42;90.53;100818.66;6214457;23;11526;-74
2021/12/26 02:31:23;;;;;;;;;8.00;7.33;;;;;2.37;91.17;100826.00;6214090;23;11487;-75
2021/12/26 02:34:20;;;;;;;;;24.00;24.00;;;;;2.44;90.58;100843.75;6214006;23;11479;-75
2021/12/26 02:37:15;;;;;;;;;23.33;20.33;;;;;2.45;90.49;100855.50;6215496;23;11534;-74
2021/12/26 02:40:11;;;;;;;;;33.00;31.67;;;;;2.42;90.64;100869.69;6213547;23;11520;-75
2021/12/26 02:43:08;;;;;;;;;37.67;37.67;;;;;2.46;90.47;100887.19;6214195;23;11515;-74
2021/12/26 02:46:06;;;;;;;;;34.00;34.00;;;;;2.35;91.12;100886.34;6194625;23;8784;-75
2021/12/26 02:49:02;;;;;;;;;37.33;34.67;;;;;2.35;91.26;100867.22;6194545;23;8783;-74
2021/12/26 02:51:58;;;;;;;;;29.50;29.50;;;;;2.39;91.25;100860.16;6214152;23;12194;-75
2021/12/26 02:54:54;;;;;;;;;31.00;29.00;;;;;2.40;90.98;100861.78;6195544;23;11569;-74
2021/12/26 02:57:56;;;;;;;;;26.33;26.00;;;;;2.42;90.26;100870.50;6214102;23;11472;-75
2021/12/26 03:01:06;;;;;;;;;36.33;36.33;;;;;2.36;90.56;100884.44;6214442;23;11503;-75
2021/12/26 03:04:04;;;;;;;;;22.67;20.67;;;;;2.47;90.43;100884.19;6214072;23;12216;-74
2021/12/26 03:07:02;;;;;;;;;50.67;48.00;;;;;2.38;90.36;100863.16;6214335;23;8830;-75
2021/12/26 03:10:00;;;;;;;;;50.00;46.00;;;;;2.47;90.92;100861.53;6194410;23;8882;-75
2021/12/26 03:12:58;;;;;;;;;45.67;42.33;;;;;2.48;90.38;100860.44;6214594;23;9485;-75
2021/12/26 03:15:54;;;;;;;;;40.00;40.00;;;;;2.43;90.48;100869.41;6213621;23;8772;-75
2021/12/26 03:18:56;;;;;;;;;47.33;42.67;;;;;2.44;90.86;100857.41;6215080;23;11515;-75
2021/12/26 03:21:51;;;;;;;;;48.67;42.00;;;;;2.47;91.38;100859.59;6214305;23;8878;-75
2021/12/26 03:24:47;;;;;;;;;40.33;39.33;;;;;2.51;91.23;100855.22;6214329;23;8791;-75
2021/12/26 03:27:42;;;;;;;;;39.00;36.00;;;;;2.50;90.68;100845.41;6214089;23;8897;-75
2021/12/26 03:30:39;;;;;;;;;38.00;36.33;;;;;2.44;90.96;100851.94;6214150;23;8807;-75
2021/12/26 03:33:34;;;;;;;;;37.00;36.00;;;;;2.48;91.30;100844.88;6214073;23;12238;-75
2021/12/26 03:36:30;;;;;;;;;33.00;33.00;;;;;2.45;90.88;100845.41;6213839;23;11548;-75
2021/12/26 03:39:26;;;;;;;;;36.33;34.33;;;;;2.45;90.34;100850.88;6213563;23;11484;-75
2021/12/26 03:42:21;;;;;;;;;33.67;33.67;;;;;2.47;90.54;100845.97;6185123;23;8799;-75
2021/12/26 03:45:18;;;;;;;;;35.67;33.67;;;;;2.47;90.06;100847.88;6183574;23;8815;-75
2021/12/26 03:48:13;;;;;;;;;30.00;29.67;;;;;2.35;89.93;100853.59;6163658;23;11675;-72
2021/12/26 03:51:09;;;;;;;;;36.67;36.00;;;;;2.50;89.94;100853.59;6183733;23;11568;-75
2021/12/26 03:54:06;;;;;;;;;68.67;54.33;;;;;2.39;90.02;100843.78;6183961;23;8803;-75
2021/12/26 03:57:02;;;;;;;;;57.33;50.67;;;;;2.43;90.08;100850.31;6183903;23;8839;-75
2021/12/26 03:59:58;;;;;;;;;62.00;52.67;;;;;2.44;90.23;100862.88;6184013;23;8802;-75
2021/12/26 04:02:54;;;;;;;;;64.67;52.67;;;;;2.50;89.19;100869.16;6183763;23;8898;-75
2021/12/26 04:05:50;;;;;;;;;69.33;56.00;;;;;2.57;89.79;100857.97;6183633;23;8818;-75
2021/12/26 04:08:46;;;;;;;;;69.67;57.67;;;;;2.44;89.17;100862.03;6184623;23;8868;-76
2021/12/26 04:11:44;;;;;;;;;66.33;57.00;;;;;2.38;89.65;100883.09;6183659;23;8799;-75
2021/12/26 04:14:40;;;;;;;;;67.67;56.67;;;;;2.55;89.24;100860.97;6183068;23;8811;-75
2021/12/26 04:17:35;;;;;;;;;67.00;52.33;;;;;2.48;89.24;100861.25;6183379;23;8811;-75
2021/12/26 04:20:31;;;;;;;;;67.67;55.33;;;;;2.45;89.28;100866.41;6184389;23;8814;-75
2021/12/26 04:23:27;;;;;;;;;56.67;50.67;;;;;2.25;89.21;100866.41;6183629;23;8802;-75
2021/12/26 04:26:22;;;;;;;;;65.33;54.67;;;;;2.33;89.04;100866.69;6183658;23;8833;-75
2021/12/26 04:29:18;;;;;;;;;46.67;43.67;;;;;2.20;89.10;100870.75;6183535;23;8818;-75
2021/12/26 04:32:14;;;;;;;;;36.00;35.67;;;;;2.34;89.00;100872.97;6183448;23;8807;-75
2021/12/26 04:35:10;;;;;;;;;33.33;31.67;;;;;2.35;89.11;100880.88;6183573;23;8806;-75
2021/12/26 04:38:06;;;;;;;;;27.75;23.25;;;;;2.28;88.99;100880.31;6183468;23;11561;-75
2021/12/26 04:41:04;;;;;;;;;24.25;20.00;;;;;2.27;88.61;100878.69;6202029;23;11611;-75
2021/12/26 04:44:00;;;;;;;;;16.25;16.25;;;;;1.89;89.18;100899.88;6212961;23;11511;-75
2021/12/26 04:46:56;;;;;;;;;24.33;24.33;;;;;1.80;90.27;100901.50;6213330;23;11490;-75
2021/12/26 04:49:51;;;;;;;;;25.67;25.67;;;;;1.93;89.77;100908.38;6213231;23;11522;-75
2021/12/26 04:52:48;;;;;;;;;31.33;31.33;;;;;1.98;89.26;100902.09;6213483;23;9505;-75
2021/12/26 04:55:44;;;;;;;;;28.33;26.00;;;;;1.98;89.67;100922.00;6213355;23;8810;-75
2021/12/26 04:58:40;;;;;;;;;23.33;19.33;;;;;1.70;89.16;100915.09;6213468;23;8803;-75
2021/12/26 05:01:36;;;;;;;;;19.00;17.67;;;;;1.42;88.78;100938.13;6213445;23;11515;-74
2021/12/26 05:04:31;;;;;;;;;16.00;16.00;;;;;1.33;89.03;100948.69;6213239;23;8811;-75
2021/12/26 05:07:27;;;;;;;;;11.33;11.33;;;;;1.28;89.13;100945.09;6213908;23;11471;-75
2021/12/26 05:10:25;;;;;;;;;7.67;7.67;;;;;1.28;88.59;100962.28;6212998;23;11522;-74
2021/12/26 05:13:20;;;;;;;;;7.67;7.67;;;;;1.46;88.37;100971.09;6212709;23;11485;-75
2021/12/26 05:16:16;;;;;;;;;7.00;7.00;;;;;1.41;87.21;100971.09;6213380;23;11464;-74
2021/12/26 05:19:11;;;;;;;;;9.67;9.67;;;;;1.42;86.61;100984.44;6213052;23;11543;-75
2021/12/26 05:22:07;;;;;;;;;4.00;4.00;;;;;1.37;85.75;100989.84;6213491;23;11591;-75
2021/12/26 05:25:06;;;;;;;;;7.67;7.67;;;;;1.52;85.82;100986.41;6214000;23;11449;-75
2021/12/26 05:28:02;;;;;;;;;4.00;4.00;;;;;1.37;85.56;100979.78;6216249;23;11453;-75
2021/12/26 05:30:58;;;;;;;;;4.00;4.00;;;;;1.31;86.52;100978.13;6215182;23;11442;-75
2021/12/26 05:33:54;;;;;;;;;10.00;10.00;;;;;1.45;85.52;100983.91;6215068;23;11553;-74
2021/12/26 05:36:49;;;;;;;;;8.00;8.00;;;;;1.41;85.81;100998.34;6214780;23;11485;-74
2021/12/26 05:39:45;;;;;;;;;5.33;5.33;;;;;1.38;85.02;100983.31;6214502;23;11566;-73
2021/12/26 05:42:41;;;;;;;;;6.33;6.33;;;;;1.33;85.29;100989.56;6214929;23;11442;-74
2021/12/26 05:45:38;;;;;;;;;7.00;7.00;;;;;1.47;84.96;100989.13;6195177;23;11460;-73
2021/12/26 05:48:34;;;;;;;;;4.00;4.00;;;;;1.21;84.83;101004.47;6214745;23;11469;-73
2021/12/26 05:51:30;;;;;;;;;5.33;5.33;;;;;1.01;85.49;101014.13;6216104;23;11445;-73
2021/12/26 05:54:26;;;;;;;;;12.33;11.67;;;;;1.16;85.86;101018.06;6215151;23;11479;-73
2021/12/26 05:57:22;;;;;;;;;19.00;17.00;;;;;1.12;86.15;101025.91;6215292;23;9494;-73
2021/12/26 06:00:19;;;;;;;;;22.67;22.67;;;;;0.82;86.41;101032.72;6215112;23;8795;-73
2021/12/26 06:03:15;;;;;;;;;25.33;25.33;;;;;1.02;86.51;101025.84;6214551;23;8941;-74
2021/12/26 06:06:10;;;;;;;;;24.67;24.67;;;;;1.13;85.86;101029.47;6214997;23;8780;-74
2021/12/26 06:09:06;;;;;;;;;24.67;24.67;;;;;1.07;86.13;101031.31;6215173;23;8822;-74
2021/12/26 06:12:02;;;;;;;;;22.00;19.67;;;;;1.11;86.03;101044.16;6215186;23;8796;-74
2021/12/26 06:14:57;;;;;;;;;24.67;24.67;;;;;0.98;85.79;101049.22;6215119;23;8787;-74
2021/12/26 06:17:53;;;;;;;;;24.67;24.33;;;;;1.11;86.15;101049.63;6214869;23;8807;-74
2021/12/26 06:20:49;;;;;;;;;16.00;16.00;;;;;1.14;86.31;101059.16;6214625;23;8795;-74
2021/12/26 06:23:50;;;;;;;;;12.67;10.67;;;;;1.34;85.53;101075.69;6195246;23;11568;-74
2021/12/26 06:26:47;;;;;;;;;13.33;12.67;;;;;1.24;85.46;101075.63;6214654;23;11492;-73
2021/12/26 06:29:43;;;;;;;;;15.33;15.33;;;;;1.21;84.90;101094.38;6214668;23;12235;-74
2021/12/26 06:32:39;;;;;;;;;12.00;12.00;;;;;1.18;85.67;101114.78;6215575;23;11498;-74
2021/12/26 06:35:34;;;;;;;;;9.00;9.00;;;;;1.14;85.00;101121.00;6214642;23;13214;-74
2021/12/26 06:38:31;;;;;;;;;11.67;11.67;;;;;1.37;85.20;101135.13;6196038;23;11487;-73
2021/12/26 06:41:27;;;;;;;;;7.33;7.00;;;;;1.36;84.61;101144.38;6207451;23;11493;-73
2021/12/26 06:44:23;;;;;;;;;8.33;8.33;;;;;1.31;85.52;101146.25;6213549;23;11660;-73
2021/12/26 06:47:18;;;;;;;;;7.67;7.67;;;;;1.33;84.40;101141.38;6215875;23;11514;-73
2021/12/26 06:50:15;;;;;;;;;10.00;10.00;;;;;1.24;83.83;101142.91;6215554;23;11510;-73
2021/12/26 06:53:12;;;;;;;;;14.33;14.33;;;;;1.32;84.27;101126.91;6213717;23;11494;-73
2021/12/26 06:56:08;;;;;;;;;42.00;36.00;;;;;1.50;84.17;101114.78;6213379;23;11571;-73
2021/12/26 06:59:03;;;;;;;;;10.00;10.00;;;;;1.24;83.99;101126.56;6215360;23;8819;-72
2021/12/26 07:01:59;;;;;;;;;11.33;11.33;;;;;1.38;83.88;101134.06;6215742;23;11596;-73
2021/12/26 07:04:54;;;;;;;;;9.00;9.00;;;;;1.63;82.69;101129.91;6215785;23;8829;-73
2021/12/26 07:07:50;;;;;;;;;4.00;4.00;;;;;1.45;83.18;101138.47;6215422;23;11573;-72
2021/12/26 07:10:46;;;;;;;;;13.00;11.33;;;;;1.43;83.52;101137.91;6215781;23;11544;-73
2021/12/26 07:13:41;;;;;;;;;10.00;10.00;;;;;1.47;83.31;101144.50;6215748;23;8795;-73
2021/12/26 07:16:37;;;;;;;;;7.75;7.75;;;;;1.55;82.83;101138.56;6215694;23;11585;-73
2021/12/26 07:19:33;;;;;;;;;12.25;12.25;;;;;1.44;83.53;101139.53;6212417;23;11525;-73
2021/12/26 07:22:28;;;;;;;;;7.00;5.33;;;;;1.64;82.69;101146.00;6215694;23;11527;-72
2021/12/26 07:25:24;;;;;;;;;12.33;12.33;;;;;1.65;82.24;101138.63;6215527;23;12215;-73
2021/12/26 07:28:19;;;;;;;;;10.67;10.67;;;;;1.76;82.17;101140.34;6215296;23;11630;-73
2021/12/26 07:31:15;;;;;;;;;10.00;10.00;;;;;1.66;81.42;101134.81;6214935;23;11517;-73
2021/12/26 07:34:11;;;;;;;;;19.33;17.67;;;;;1.74;81.84;101142.53;6231959;23;11515;-72
2021/12/26 07:37:07;;;;;;;;;11.00;11.00;;;;;1.35;82.03;101150.09;6215260;23;11603;-73
2021/12/26 07:40:05;;;;;;;;;16.67;16.00;;;;;1.35;82.23;101145.47;6215250;23;11500;-73
2021/12/26 07:43:05;;;;;;;;;21.67;21.67;;;;;1.47;81.58;101158.94;6214218;23;11535;-73
2021/12/26 07:46:00;;;;;;;;;15.33;15.33;;;;;1.48;81.84;101159.75;6213951;23;11484;-73
2021/12/26 07:48:56;;;;;;;;;18.00;18.00;;;;;1.47;81.40;101160.84;6213845;23;12284;-74
2021/12/26 07:51:52;;;;;;;;;19.00;18.33;;;;;1.38;81.82;101160.47;6215363;23;12210;-73
2021/12/26 07:54:48;;;;;;;;;20.67;19.67;;;;;1.75;81.51;101163.25;6213907;23;8871;-74
2021/12/26 07:57:48;;;;;;;;;19.67;19.67;;;;;1.53;81.24;101176.16;6212300;23;11533;-73
2021/12/26 08:00:44;;;;;;;;;22.67;22.00;;;;;1.93;80.68;101176.50;6213917;23;11505;-73
